Time;durP1;ratioP1;P1;durP2;ratioP2;P2;SDS_P1;SDS_P2;PMS_P1;PMS_P2;Temp;Humidity;BMP_temperature;BMP_pressure;BME280_temperature;BME280_humidity;BME280_pressure;Samples;Min_cycle;Max_cycle;Signal;HPM_P1;HPM_P2
2022/08/24 00:00:18;;;;;;;6.30;3.83;;;18.00;99.90;;;;;;5055774;28;20493;-74
2022/08/24 00:02:43;;;;;;;3.80;3.50;;;17.90;99.90;;;;;;5055962;28;20249;-74
2022/08/24 00:05:09;;;;;;;3.10;2.73;;;17.90;99.90;;;;;;5054777;28;20456;-75
2022/08/24 00:07:35;;;;;;;3.87;3.50;;;17.80;99.90;;;;;;5054267;28;20193;-74
2022/08/24 00:10:03;;;;;;;5.83;3.00;;;17.80;99.90;;;;;;5054147;28;20405;-74
2022/08/24 00:12:30;;;;;;;3.47;3.17;;;17.80;99.90;;;;;;5036120;28;20203;-75
2022/08/24 00:14:56;;;;;;;3.90;3.60;;;17.80;99.90;;;;;;5053727;28;20532;-75
2022/08/24 00:17:21;;;;;;;4.20;3.80;;;17.80;99.90;;;;;;5054280;28;20459;-75
2022/08/24 00:19:47;;;;;;;3.90;3.60;;;17.70;99.90;;;;;;5054121;28;20171;-75
2022/08/24 00:22:13;;;;;;;5.47;3.47;;;17.70;99.90;;;;;;5054446;28;20173;-75
2022/08/24 00:24:38;;;;;;;3.23;2.93;;;17.70;99.90;;;;;;5053772;28;20332;-75
2022/08/24 00:27:05;;;;;;;4.53;4.00;;;17.60;99.90;;;;;;5055252;28;20447;-75
2022/08/24 00:29:31;;;;;;;4.20;3.80;;;17.60;99.90;;;;;;5054940;28;20233;-75
2022/08/24 00:31:57;;;;;;;4.20;3.60;;;17.60;99.90;;;;;;5054396;28;20459;-75
2022/08/24 00:34:24;;;;;;;5.83;3.47;;;17.60;99.90;;;;;;5054097;28;20420;-75
2022/08/24 00:36:49;;;;;;;6.07;4.93;;;17.60;99.90;;;;;;5053843;28;20329;-74
2022/08/24 00:39:15;;;;;;;6.27;3.60;;;17.50;99.90;;;;;;5053618;28;20435;-75
2022/08/24 00:41:50;;;;;;;5.80;3.93;;;17.60;99.90;;;;;;5053801;28;20176;-75
2022/08/24 00:44:17;;;;;;;4.63;4.03;;;17.50;99.90;;;;;;5053605;28;20236;-75
2022/08/24 00:46:46;;;;;;;6.03;3.80;;;17.50;99.90;;;;;;5052869;28;20412;-74
2022/08/24 00:49:21;;;;;;;4.50;4.00;;;17.60;99.90;;;;;;5053222;28;20407;-74
2022/08/24 00:52:16;;;;;;;4.60;4.10;;;17.60;99.90;;;;;;5053294;28;20447;-75
2022/08/24 00:54:55;;;;;;;4.53;3.90;;;17.60;99.90;;;;;;5053165;28;20415;-75
2022/08/24 00:57:26;;;;;;;5.47;4.33;;;17.50;99.90;;;;;;5053434;28;20423;-74
2022/08/24 00:59:57;;;;;;;4.17;3.80;;;17.50;99.90;;;;;;5053342;28;20790;-74
2022/08/24 01:02:28;;;;;;;4.67;4.10;;;17.50;99.90;;;;;;5053413;28;20881;-76
2022/08/24 01:05:00;;;;;;;5.80;4.33;;;17.50;99.90;;;;;;5052487;28;20425;-74
2022/08/24 01:07:28;;;;;;;4.47;4.07;;;17.50;99.90;;;;;;5052991;28;20432;-74
2022/08/24 01:09:57;;;;;;;7.03;4.00;;;17.50;99.90;;;;;;5053038;28;20403;-74
2022/08/24 01:12:25;;;;;;;6.60;4.60;;;17.50;99.90;;;;;;5053109;28;20823;-74
2022/08/24 01:14:52;;;;;;;4.80;4.40;;;17.40;99.90;;;;;;5052031;28;20447;-74
2022/08/24 01:20:03;;;;;;;5.20;3.80;;;17.50;99.90;;;;;;5053066;28;20457;-74
2022/08/24 01:22:57;;;;;;;5.03;4.40;;;17.40;99.90;;;;;;5052412;28;20408;-74
2022/08/24 01:25:26;;;;;;;4.93;4.00;;;17.40;99.90;;;;;;5052305;28;20408;-74
2022/08/24 01:27:55;;;;;;;5.83;4.33;;;17.40;99.90;;;;;;5034710;28;20420;-74
2022/08/24 01:30:20;;;;;;;5.50;3.80;;;17.40;99.90;;;;;;5052665;28;20411;-74
2022/08/24 01:32:57;;;;;;;5.27;4.77;;;17.40;99.90;;;;;;5052373;28;21053;-74
2022/08/24 01:35:23;;;;;;;5.40;4.90;;;17.40;99.90;;;;;;5052048;28;20201;-74
2022/08/24 01:37:50;;;;;;;4.73;3.90;;;17.40;99.90;;;;;;5052546;28;20404;-75
2022/08/24 01:40:17;;;;;;;7.77;5.03;;;17.40;99.90;;;;;;5052664;28;20789;-75
2022/08/24 01:42:51;;;;;;;6.23;4.67;;;17.40;99.90;;;;;;5053648;28;20969;-74
2022/08/24 01:45:18;;;;;;;6.17;4.17;;;17.40;99.90;;;;;;5061555;28;20399;-75
2022/08/24 01:47:44;;;;;;;5.30;4.80;;;17.40;99.90;;;;;;5053035;28;21111;-74
2022/08/24 01:50:10;;;;;;;5.43;4.93;;;17.40;99.90;;;;;;5052262;28;20500;-74
2022/08/24 01:52:40;;;;;;;9.00;5.37;;;17.40;99.90;;;;;;5052624;28;20309;-74
2022/08/24 01:55:10;;;;;;;8.40;4.87;;;17.40;99.90;;;;;;5059729;28;20418;-75
2022/08/24 01:57:36;;;;;;;5.70;5.20;;;17.40;99.90;;;;;;5062965;28;20390;-74
2022/08/24 02:00:07;;;;;;;7.47;5.03;;;17.40;99.90;;;;;;5062253;28;20420;-74
2022/08/24 02:02:33;;;;;;;5.17;4.67;;;17.40;99.90;;;;;;5052351;28;20249;-75
2022/08/24 02:04:59;;;;;;;8.07;5.33;;;17.50;99.90;;;;;;5051445;28;20514;-75
2022/08/24 02:07:25;;;;;;;6.03;4.67;;;17.50;99.90;;;;;;5051981;28;20640;-74
2022/08/24 02:09:51;;;;;;;7.17;4.80;;;17.60;99.90;;;;;;5051946;28;20503;-74
2022/08/24 02:12:18;;;;;;;9.20;5.50;;;17.60;99.90;;;;;;5052116;28;20830;-74
2022/08/24 02:14:44;;;;;;;6.57;5.90;;;17.60;99.90;;;;;;5051723;28;20251;-74
2022/08/24 02:17:10;;;;;;;6.50;5.30;;;17.70;99.90;;;;;;5051875;28;20439;-75
2022/08/24 02:19:36;;;;;;;8.07;6.57;;;17.70;99.90;;;;;;5052046;28;20173;-74
2022/08/24 02:22:04;;;;;;;6.43;4.70;;;17.70;99.90;;;;;;5051943;28;20416;-74
2022/08/24 02:24:31;;;;;;;7.83;6.13;;;17.70;99.90;;;;;;5051949;28;20428;-74
2022/08/24 02:26:57;;;;;;;11.63;7.37;;;17.70;99.90;;;;;;5052056;28;20414;-74
2022/08/24 02:29:23;;;;;;;10.27;7.60;;;17.80;99.90;;;;;;5051800;28;20870;-73
2022/08/24 02:31:49;;;;;;;13.13;7.80;;;17.80;99.90;;;;;;5051730;28;20447;-75
2022/08/24 02:34:14;;;;;;;15.03;9.90;;;17.90;99.90;;;;;;5051792;28;20189;-74
2022/08/24 02:36:40;;;;;;;13.60;8.93;;;17.90;99.90;;;;;;5051636;28;20658;-75
2022/08/24 02:39:08;;;;;;;16.23;8.93;;;17.90;99.90;;;;;;5052252;28;20170;-74
2022/08/24 02:41:34;;;;;;;12.03;8.50;;;18.00;99.90;;;;;;5051774;28;20171;-75
2022/08/24 02:44:01;;;;;;;16.00;10.63;;;18.00;99.90;;;;;;5051705;28;20420;-74
2022/08/24 02:46:28;;;;;;;17.67;10.77;;;18.00;99.90;;;;;;5051529;28;20409;-75
2022/08/24 02:48:55;;;;;;;13.60;9.83;;;18.00;99.90;;;;;;5055154;28;20412;-75
2022/08/24 02:51:21;;;;;;;16.07;9.07;;;18.00;99.90;;;;;;5055406;28;20443;-75
2022/08/24 02:53:47;;;;;;;11.50;9.30;;;18.00;99.90;;;;;;5055646;28;20433;-75
2022/08/24 02:56:13;;;;;;;15.10;9.80;;;18.00;99.90;;;;;;5055181;28;20416;-75
2022/08/24 02:58:38;;;;;;;15.57;9.97;;;17.90;99.90;;;;;;5055550;28;20403;-75
2022/08/24 03:01:04;;;;;;;18.63;10.40;;;18.00;99.90;;;;;;5055542;28;20172;-73
2022/08/24 03:03:29;;;;;;;14.13;10.67;;;17.90;99.90;;;;;;5055337;28;20198;-73
2022/08/24 03:05:55;;;;;;;13.67;10.10;;;17.90;99.90;;;;;;5054696;28;20533;-74
2022/08/24 03:08:20;;;;;;;13.93;9.53;;;17.90;99.90;;;;;;5037412;28;20640;-74
2022/08/24 03:10:46;;;;;;;13.50;9.60;;;17.80;99.90;;;;;;5055246;28;20629;-74
2022/08/24 03:13:11;;;;;;;12.77;9.27;;;17.80;99.90;;;;;;5037194;28;20240;-74
2022/08/24 03:15:37;;;;;;;12.80;10.30;;;17.80;99.90;;;;;;5055186;28;20214;-74
2022/08/24 03:18:03;;;;;;;14.57;9.83;;;17.80;99.90;;;;;;5038377;28;20178;-74
2022/08/24 03:20:28;;;;;;;13.00;10.60;;;17.80;99.90;;;;;;5056028;28;20706;-74
2022/08/24 03:22:54;;;;;;;15.20;10.23;;;17.70;99.90;;;;;;5055293;28;20208;-74
2022/08/24 03:25:23;;;;;;;12.50;9.87;;;17.70;99.90;;;;;;5055336;28;20182;-74
2022/08/24 03:27:49;;;;;;;15.57;10.00;;;17.70;99.90;;;;;;5055641;28;20216;-74
2022/08/24 03:30:16;;;;;;;16.67;12.27;;;17.70;99.90;;;;;;5064653;28;20413;-74
2022/08/24 03:32:42;;;;;;;12.03;8.70;;;17.70;99.90;;;;;;5061836;28;20723;-75
2022/08/24 03:35:10;;;;;;;12.13;9.57;;;17.60;99.90;;;;;;5054032;28;20456;-75
2022/08/24 03:37:36;;;;;;;9.70;8.40;;;17.50;99.90;;;;;;5054721;28;20585;-73
2022/08/24 03:40:03;;;;;;;10.90;8.07;;;17.50;99.90;;;;;;5054609;28;20423;-75
2022/08/24 03:42:29;;;;;;;12.50;10.13;;;17.40;99.90;;;;;;5054503;28;20895;-74
2022/08/24 03:44:54;;;;;;;11.60;8.07;;;17.40;99.90;;;;;;5054009;28;20505;-74
2022/08/24 03:47:21;;;;;;;12.00;8.43;;;17.40;99.90;;;;;;5054241;28;20180;-74
2022/08/24 03:49:47;;;;;;;9.90;7.73;;;17.30;99.90;;;;;;5054561;28;20173;-74
2022/08/24 03:52:12;;;;;;;9.23;7.67;;;17.30;99.90;;;;;;5054201;28;20463;-74
2022/08/24 03:54:38;;;;;;;10.03;8.57;;;17.30;99.90;;;;;;5054415;28;20225;-75
2022/08/24 03:57:04;;;;;;;11.40;8.53;;;17.30;99.90;;;;;;5054743;28;20234;-75
2022/08/24 03:59:30;;;;;;;8.10;7.23;;;17.20;99.90;;;;;;5055304;28;20163;-74
2022/08/24 04:01:56;;;;;;;14.50;8.43;;;17.20;99.90;;;;;;5054993;28;20262;-74
2022/08/24 04:04:22;;;;;;;9.47;7.30;;;17.20;99.90;;;;;;5055712;28;20424;-74
2022/08/24 04:06:48;;;;;;;8.10;6.80;;;17.20;99.90;;;;;;5061355;28;20835;-74
2022/08/24 04:09:14;;;;;;;13.23;9.37;;;17.20;99.90;;;;;;5060919;28;20199;-74
2022/08/24 04:11:42;;;;;;;10.07;7.67;;;17.20;99.90;;;;;;5057519;28;20194;-72
2022/08/24 04:14:08;;;;;;;10.50;6.70;;;17.20;99.90;;;;;;5055196;28;20459;-74
2022/08/24 04:16:34;;;;;;;9.77;8.03;;;17.20;99.90;;;;;;5053565;28;20408;-75
2022/08/24 04:19:00;;;;;;;9.77;7.60;;;17.10;99.90;;;;;;5053985;28;20906;-74
2022/08/24 04:21:28;;;;;;;8.60;7.27;;;17.10;99.90;;;;;;5054454;28;20174;-73
2022/08/24 04:23:54;;;;;;;8.47;6.87;;;17.10;99.90;;;;;;5054468;28;20201;-74
2022/08/24 04:26:22;;;;;;;8.70;7.47;;;17.20;99.90;;;;;;5035816;28;20831;-74
2022/08/24 04:28:48;;;;;;;8.20;7.17;;;17.20;99.90;;;;;;5053568;28;20426;-74
2022/08/24 04:31:14;;;;;;;10.77;8.37;;;17.30;99.90;;;;;;5053560;28;20402;-74
2022/08/24 04:33:40;;;;;;;9.00;8.10;;;17.30;99.90;;;;;;5053514;28;20203;-75
2022/08/24 04:36:09;;;;;;;10.53;7.30;;;17.30;99.90;;;;;;5053321;28;20491;-74
2022/08/24 04:38:36;;;;;;;13.53;9.60;;;17.30;99.90;;;;;;5053429;28;20458;-74
2022/08/24 04:41:08;;;;;;;11.87;8.17;;;17.30;99.90;;;;;;5053770;28;20815;-74
2022/08/24 04:43:34;;;;;;;12.50;9.00;;;17.30;99.90;;;;;;5053339;28;20954;-74
2022/08/24 04:46:03;;;;;;;10.27;8.17;;;17.40;99.90;;;;;;5053045;28;20419;-74
2022/08/24 04:48:29;;;;;;;11.60;8.17;;;17.40;99.90;;;;;;5053342;28;20471;-74
2022/08/24 04:50:54;;;;;;;10.20;8.60;;;17.40;99.90;;;;;;5053739;28;20404;-74
2022/08/24 04:53:20;;;;;;;10.17;7.53;;;17.40;99.90;;;;;;5053172;28;20230;-75
2022/08/24 04:55:48;;;;;;;11.57;7.90;;;17.40;99.90;;;;;;5053113;28;20176;-75
2022/08/24 04:58:15;;;;;;;9.90;7.97;;;17.40;99.90;;;;;;5053901;28;20172;-75
2022/08/24 05:00:41;;;;;;;10.20;7.80;;;17.50;99.90;;;;;;5039274;28;20420;-75
2022/08/24 05:03:06;;;;;;;11.23;7.37;;;17.50;99.90;;;;;;5066095;28;20522;-75
2022/08/24 05:05:33;;;;;;;8.43;7.50;;;17.60;99.90;;;;;;5066320;28;20416;-75
2022/08/24 05:07:59;;;;;;;9.50;8.43;;;17.60;99.90;;;;;;5066991;28;20177;-75
2022/08/24 05:10:25;;;;;;;9.90;7.37;;;17.60;99.90;;;;;;5057056;28;20410;-75
2022/08/24 05:12:50;;;;;;;8.97;7.53;;;17.70;99.90;;;;;;5053706;28;20525;-74
2022/08/24 05:15:16;;;;;;;12.43;7.97;;;17.70;99.90;;;;;;5054133;28;20178;-75
2022/08/24 05:17:42;;;;;;;11.50;7.77;;;17.70;99.90;;;;;;5056165;28;20226;-76
2022/08/24 05:20:10;;;;;;;10.10;8.43;;;17.70;99.90;;;;;;5055346;28;20616;-75
2022/08/24 05:22:36;;;;;;;11.73;8.83;;;17.80;99.90;;;;;;5052526;28;20900;-75
2022/08/24 05:25:02;;;;;;;9.00;7.50;;;17.80;99.90;;;;;;5052183;28;20836;-75
2022/08/24 05:27:27;;;;;;;11.07;7.33;;;17.80;99.90;;;;;;5052628;28;20765;-76
2022/08/24 05:29:54;;;;;;;8.53;7.10;;;17.80;99.90;;;;;;5052838;28;20411;-75
2022/08/24 05:32:19;;;;;;;9.13;7.30;;;17.90;99.90;;;;;;5034751;28;20293;-75
2022/08/24 05:34:45;;;;;;;7.97;7.20;;;17.90;99.90;;;;;;5052555;28;20514;-74
2022/08/24 05:37:11;;;;;;;10.50;7.70;;;17.90;99.90;;;;;;5052670;28;20291;-75
2022/08/24 05:39:36;;;;;;;6.10;5.50;;;18.00;99.90;;;;;;5052384;28;20579;-75
2022/08/24 05:42:03;;;;;;;6.87;6.00;;;18.10;99.90;;;;;;5052270;28;20622;-74
2022/08/24 05:44:30;;;;;;;6.90;6.17;;;18.10;99.90;;;;;;5051923;28;20202;-74
2022/08/24 05:46:59;;;;;;;8.83;4.57;;;18.20;99.90;;;;;;5032227;28;20460;-76
2022/08/24 05:49:25;;;;;;;6.20;5.53;;;18.20;99.90;;;;;;5051810;28;20449;-75
2022/08/24 05:51:51;;;;;;;6.60;4.80;;;18.50;99.90;;;;;;5051824;28;20452;-75
2022/08/24 05:54:17;;;;;;;10.60;4.80;;;18.70;99.90;;;;;;5051635;28;20544;-75
2022/08/24 05:56:44;;;;;;;8.80;4.70;;;18.70;99.90;;;;;;5051699;28;20177;-76
2022/08/24 05:59:10;;;;;;;7.73;5.47;;;18.80;99.90;;;;;;5052074;28;20412;-75
2022/08/24 06:01:36;;;;;;;5.20;4.20;;;18.80;99.90;;;;;;5052066;28;20415;-75
2022/08/24 06:04:03;;;;;;;5.90;4.63;;;19.20;99.90;;;;;;5060520;28;20505;-76
2022/08/24 06:06:29;;;;;;;7.27;4.33;;;19.00;99.90;;;;;;5071885;28;20411;-75
2022/08/24 06:08:57;;;;;;;5.17;4.23;;;19.40;99.90;;;;;;5064873;28;20473;-76
2022/08/24 06:11:26;;;;;;;4.53;4.07;;;19.70;99.90;;;;;;5052925;28;20302;-79
2022/08/24 06:13:53;;;;;;;6.23;4.60;;;19.80;99.90;;;;;;5052198;28;20447;-76
2022/08/24 06:16:20;;;;;;;5.37;4.20;;;20.00;99.90;;;;;;5051905;28;20415;-76
2022/08/24 06:18:46;;;;;;;5.20;3.87;;;20.60;99.90;;;;;;5047680;28;20922;-77
2022/08/24 06:21:15;;;;;;;4.33;3.57;;;21.10;99.90;;;;;;5058034;28;20419;-76
2022/08/24 06:23:42;;;;;;;4.10;3.70;;;22.00;99.90;;;;;;5055615;28;20433;-74
2022/08/24 06:28:55;;;;;;;5.00;4.50;;;21.60;99.90;;;;;;5076490;28;20448;-75
2022/08/24 06:31:23;;;;;;;6.43;4.80;;;21.20;99.90;;;;;;5076773;28;20469;-75
2022/08/24 06:33:48;;;;;;;5.97;4.30;;;21.20;99.90;;;;;;5078326;28;20433;-75
2022/08/24 06:36:14;;;;;;;5.50;4.27;;;21.40;99.90;;;;;;5078558;28;20419;-75
2022/08/24 06:38:40;;;;;;;5.50;4.77;;;21.80;99.90;;;;;;5062514;28;20174;-75
2022/08/24 06:41:06;;;;;;;6.23;4.97;;;22.70;99.90;;;;;;5076372;28;20164;-76
2022/08/24 06:43:32;;;;;;;6.83;6.13;;;22.30;99.90;;;;;;5076319;28;20199;-76
2022/08/24 06:45:58;;;;;;;7.73;6.03;;;22.10;99.90;;;;;;5075636;28;20406;-76
2022/08/24 06:48:24;;;;;;;7.17;5.83;;;22.20;99.90;;;;;;5061424;28;20413;-76
2022/08/24 06:50:51;;;;;;;7.13;5.43;;;22.30;99.90;;;;;;5056243;28;20267;-76
2022/08/24 06:53:16;;;;;;;7.03;5.30;;;21.90;99.90;;;;;;5056993;28;20216;-76
2022/08/24 06:55:52;;;;;;;6.77;5.10;;;21.30;99.90;;;;;;5055944;28;20964;-76
2022/08/24 06:58:19;;;;;;;8.30;5.97;;;21.20;99.90;;;;;;5057328;28;20174;-76
2022/08/24 07:00:45;;;;;;;5.70;4.83;;;20.80;99.90;;;;;;5061811;28;20415;-76
2022/08/24 07:03:10;;;;;;;6.33;4.50;;;20.90;99.90;;;;;;5061257;28;20435;-76
2022/08/24 07:05:37;;;;;;;10.50;5.90;;;20.70;99.90;;;;;;5059230;28;20446;-76
2022/08/24 07:08:04;;;;;;;8.30;5.10;;;20.80;99.90;;;;;;5056054;28;20178;-76
2022/08/24 07:10:30;;;;;;;6.67;5.37;;;20.70;99.90;;;;;;5055157;28;20413;-76
2022/08/24 07:12:56;;;;;;;5.40;4.30;;;20.70;99.90;;;;;;5055031;28;20465;-76
2022/08/24 07:15:22;;;;;;;9.23;5.97;;;20.80;99.90;;;;;;5055097;28;20415;-75
2022/08/24 07:17:48;;;;;;;7.50;4.80;;;20.30;99.90;;;;;;5056258;28;20548;-76
2022/08/24 07:20:14;;;;;;;7.07;5.50;;;20.30;99.90;;;;;;5055711;28;20407;-76
2022/08/24 07:22:39;;;;;;;7.97;5.10;;;20.40;99.90;;;;;;5045264;28;20177;-75
2022/08/24 07:25:06;;;;;;;9.60;6.67;;;20.40;99.90;;;;;;5044962;28;20205;-76
2022/08/24 07:27:32;;;;;;;10.27;6.17;;;20.80;99.90;;;;;;5045778;28;20203;-75
2022/08/24 07:29:58;;;;;;;9.50;6.00;;;21.00;99.90;;;;;;5064631;28;20410;-76
2022/08/24 07:32:24;;;;;;;13.73;8.10;;;21.20;99.90;;;;;;5063372;28;20458;-76
2022/08/24 07:34:49;;;;;;;10.27;6.30;;;21.20;99.90;;;;;;5057458;28;20191;-76
2022/08/24 07:37:15;;;;;;;9.23;6.57;;;21.20;99.90;;;;;;5055048;28;20182;-75
2022/08/24 07:39:41;;;;;;;7.90;5.37;;;21.60;99.90;;;;;;5036951;28;20180;-76
2022/08/24 07:42:07;;;;;;;8.83;6.03;;;21.80;99.90;;;;;;5020374;28;20175;-75
2022/08/24 07:44:34;;;;;;;9.30;6.00;;;22.10;99.90;;;;;;5054159;28;20193;-75
2022/08/24 07:47:00;;;;;;;7.93;5.40;;;22.60;99.90;;;;;;5054201;28;20407;-76
2022/08/24 07:49:25;;;;;;;9.03;5.53;;;22.40;99.90;;;;;;5054443;28;20772;-75
2022/08/24 07:51:52;;;;;;;9.93;5.50;;;22.30;99.90;;;;;;5053970;28;20200;-75
2022/08/24 07:54:19;;;;;;;9.70;5.90;;;22.20;99.90;;;;;;5068511;28;20183;-76
2022/08/24 07:56:45;;;;;;;9.40;6.17;;;22.10;99.90;;;;;;5054479;28;20440;-75
2022/08/24 07:59:11;;;;;;;8.17;5.47;;;22.60;99.90;;;;;;5054326;28;20948;-76
2022/08/24 08:01:37;;;;;;;9.83;5.97;;;22.70;99.90;;;;;;5054618;28;20208;-76
2022/08/24 08:04:03;;;;;;;11.87;7.33;;;23.30;99.90;;;;;;5054384;28;20459;-76
2022/08/24 08:06:29;;;;;;;8.93;7.10;;;23.00;99.90;;;;;;5072195;28;20771;-76
2022/08/24 08:08:55;;;;;;;7.67;6.27;;;22.90;99.90;;;;;;5082641;28;20423;-75
2022/08/24 08:11:20;;;;;;;16.60;7.70;;;22.50;99.90;;;;;;5081953;28;20194;-75
2022/08/24 08:13:46;;;;;;;7.67;6.43;;;22.10;99.90;;;;;;5081675;28;20211;-75
2022/08/24 08:16:12;;;;;;;10.30;7.67;;;22.10;99.90;;;;;;5078041;28;20205;-75
2022/08/24 08:18:37;;;;;;;6.33;5.60;;;22.60;99.90;;;;;;5067965;28;20180;-75
2022/08/24 08:21:04;;;;;;;8.40;6.17;;;23.20;99.90;;;;;;5053631;28;20186;-76
2022/08/24 08:26:18;;;;;;;8.53;6.53;;;23.30;99.90;;;;;;5053558;28;20422;-75
2022/08/24 08:28:45;;;;;;;6.87;5.63;;;22.90;99.90;;;;;;5053344;28;20420;-76
2022/08/24 08:31:11;;;;;;;8.00;6.50;;;22.80;99.90;;;;;;5054627;28;20885;-76
2022/08/24 08:33:36;;;;;;;8.63;6.20;;;22.80;99.90;;;;;;5053228;28;20433;-76
2022/08/24 08:36:08;;;;;;;7.17;5.60;;;22.80;99.90;;;;;;5052975;28;20807;-75
2022/08/24 08:38:34;;;;;;;10.83;6.27;;;23.00;99.90;;;;;;5053917;28;20163;-75
2022/08/24 08:41:16;;;;;;;12.60;7.60;;;23.30;99.90;;;;;;5053365;28;20420;-76
2022/08/24 08:43:47;;;;;;;11.40;7.77;;;22.90;99.90;;;;;;5053772;28;20430;-76
2022/08/24 08:46:59;;;;;;;9.40;6.77;;;23.60;99.90;;;;;;5052404;28;20412;-75
2022/08/24 08:49:40;;;;;;;8.10;7.30;;;23.70;99.90;;;;;;5034131;28;20412;-76
2022/08/24 08:52:26;;;;;;;8.70;5.97;;;23.40;99.90;;;;;;5040983;28;20488;-76
2022/08/24 08:54:54;;;;;;;11.10;7.10;;;23.10;99.90;;;;;;5043574;28;20760;-76
2022/08/24 08:57:31;;;;;;;8.73;6.80;;;22.30;99.90;;;;;;5052872;28;20457;-76
2022/08/24 09:00:09;;;;;;;16.23;8.50;;;22.90;99.90;;;;;;5053103;28;20494;-75
2022/08/24 09:02:51;;;;;;;13.20;6.87;;;23.20;99.90;;;;;;5053346;28;20424;-75
2022/08/24 09:05:48;;;;;;;8.20;6.30;;;22.80;99.90;;;;;;5059880;28;20465;-75
2022/08/24 09:08:38;;;;;;;8.73;6.73;;;22.90;99.90;;;;;;5072889;28;20408;-75
2022/08/24 09:11:26;;;;;;;10.20;6.60;;;22.60;99.90;;;;;;5072930;28;20408;-75
2022/08/24 09:14:09;;;;;;;11.37;7.43;;;22.50;99.90;;;;;;5072678;28;20451;-75
2022/08/24 09:16:57;;;;;;;11.20;6.17;;;22.90;99.90;;;;;;5072670;28;20434;-75
2022/08/24 09:19:36;;;;;;;11.20;7.30;;;23.30;99.90;;;;;;5062689;28;20409;-75
2022/08/24 09:22:07;;;;;;;9.00;6.50;;;23.20;99.90;;;;;;5052858;28;20791;-74
2022/08/24 09:24:53;;;;;;;8.50;6.53;;;22.90;99.90;;;;;;5052316;28;20791;-75
2022/08/24 09:27:45;;;;;;;8.80;5.80;;;23.20;99.90;;;;;;5062131;28;20413;-76
2022/08/24 09:30:54;;;;;;;9.63;6.57;;;23.60;99.90;;;;;;5072670;28;20434;-76
2022/08/24 09:33:23;;;;;;;8.67;6.80;;;23.80;99.90;;;;;;5011783;28;20480;-75
2022/08/24 09:36:07;;;;;;;11.40;6.80;;;23.10;99.90;;;;;;5032134;28;20846;-76
2022/08/24 09:39:06;;;;;;;10.90;7.60;;;23.30;99.90;;;;;;5034156;28;20405;-76
2022/08/24 09:42:00;;;;;;;12.30;8.47;;;23.30;99.90;;;;;;5052328;28;20441;-76
2022/08/24 09:44:43;;;;;;;11.70;8.00;;;22.90;99.90;;;;;;5052118;28;20429;-77
2022/08/24 09:47:38;;;;;;;10.07;6.87;;;22.90;99.90;;;;;;5068195;28;20461;-76
2022/08/24 09:50:25;;;;;;;12.17;8.40;;;23.00;99.90;;;;;;5053059;28;20406;-75
2022/08/24 09:53:28;;;;;;;17.33;7.93;;;23.30;99.90;;;;;;5052676;28;20511;-75
2022/08/24 09:56:23;;;;;;;8.03;6.27;;;23.50;99.90;;;;;;5051340;28;20410;-75
2022/08/24 09:58:58;;;;;;;10.73;7.53;;;23.40;99.90;;;;;;5051892;28;20995;-75
2022/08/24 10:01:46;;;;;;;8.87;7.80;;;23.30;99.90;;;;;;5052064;28;20429;-75
2022/08/24 10:04:45;;;;;;;12.80;9.30;;;23.00;99.90;;;;;;5052090;28;20413;-76
2022/08/24 10:07:20;;;;;;;12.47;8.83;;;23.10;99.90;;;;;;5047824;28;20402;-76
2022/08/24 10:10:17;;;;;;;10.37;7.50;;;23.10;99.90;;;;;;5048067;28;20865;-76
2022/08/24 10:12:46;;;;;;;10.33;7.90;;;23.10;99.90;;;;;;5031844;28;20479;-76
2022/08/24 10:15:33;;;;;;;14.93;9.00;;;23.10;99.90;;;;;;5031505;28;20914;-75
2022/08/24 10:18:26;;;;;;;14.53;9.10;;;23.10;99.90;;;;;;5031879;28;20398;-77
2022/08/24 10:21:37;;;;;;;12.67;9.07;;;22.90;99.90;;;;;;5037835;28;20750;-76
2022/08/24 10:24:23;;;;;;;9.27;7.10;;;22.90;99.90;;;;;;5046935;28;20456;-76
2022/08/24 10:26:55;;;;;;;9.60;7.70;;;23.00;99.90;;;;;;5031775;28;20404;-75
2022/08/24 10:29:58;;;;;;;11.43;8.47;;;23.20;99.90;;;;;;5032673;28;20865;-75
2022/08/24 10:32:27;;;;;;;11.20;7.60;;;23.50;99.90;;;;;;5031396;28;20472;-77
2022/08/24 10:35:11;;;;;;;10.80;8.23;;;23.50;99.90;;;;;;5032043;28;20428;-77
2022/08/24 10:41:15;;;;;;;7.07;6.10;;;24.10;99.90;;;;;;5035225;28;20938;-76
2022/08/24 10:43:59;;;;;;;7.43;5.90;;;24.00;99.90;;;;;;5051247;28;20513;-76
2022/08/24 10:46:35;;;;;;;7.20;6.20;;;24.10;99.90;;;;;;5050560;28;20494;-76
2022/08/24 10:49:34;;;;;;;10.13;6.40;;;24.30;99.90;;;;;;5051960;28;20530;-76
2022/08/24 10:52:12;;;;;;;8.87;5.67;;;24.10;99.90;;;;;;5051261;28;20453;-76
2022/08/24 10:54:38;;;;;;;7.93;6.90;;;24.40;99.90;;;;;;5051375;28;21017;-76
2022/08/24 10:57:18;;;;;;;8.30;7.50;;;24.50;99.90;;;;;;5051468;28;20417;-75
2022/08/24 11:00:02;;;;;;;7.20;6.00;;;24.70;99.90;;;;;;5051643;28;20188;-76
2022/08/24 11:02:36;;;;;;;8.60;7.00;;;24.90;99.90;;;;;;5051340;28;20468;-76
2022/08/24 11:05:09;;;;;;;8.03;6.97;;;25.10;99.90;;;;;;5051215;28;20425;-75
2022/08/24 11:07:37;;;;;;;8.80;6.60;;;24.90;99.90;;;;;;5051424;28;20762;-76
2022/08/24 11:10:08;;;;;;;7.43;6.73;;;24.60;99.90;;;;;;5055284;28;20512;-76
2022/08/24 11:12:42;;;;;;;10.27;7.63;;;24.90;99.90;;;;;;5055958;28;20577;-76
2022/08/24 11:15:16;;;;;;;10.67;8.40;;;25.20;99.90;;;;;;5090416;22;20484;-66
2022/08/24 11:17:57;;;;;;;7.10;6.40;;;25.60;99.90;;;;;;5067533;28;20412;-67
2022/08/24 11:20:47;;;;;;;12.90;8.83;;;25.20;99.90;;;;;;5074661;28;20817;-67
2022/08/24 11:23:27;;;;;;;10.67;7.17;;;25.20;99.90;;;;;;5073893;28;20415;-67
2022/08/24 11:26:14;;;;;;;7.50;6.80;;;25.10;99.90;;;;;;5074115;28;20431;-68
2022/08/24 11:28:52;;;;;;;7.77;6.73;;;25.10;99.90;;;;;;5074531;28;20403;-68
2022/08/24 11:31:30;;;;;;;6.63;5.60;;;25.20;99.90;;;;;;5074277;28;20411;-67
2022/08/24 11:34:06;;;;;;;6.00;5.40;;;25.40;99.90;;;;;;5074646;28;20963;-68
2022/08/24 11:36:34;;;;;;;7.10;6.47;;;25.30;99.90;;;;;;5074146;28;20795;-68
2022/08/24 11:39:24;;;;;;;7.93;6.20;;;25.30;99.90;;;;;;5074217;28;20408;-67
2022/08/24 11:41:58;;;;;;;6.73;6.03;;;25.40;99.90;;;;;;5074303;28;20517;-67
2022/08/24 11:44:56;;;;;;;7.10;5.13;;;25.40;99.90;;;;;;5073995;28;20435;-67
2022/08/24 11:47:28;;;;;;;7.83;7.10;;;25.40;99.90;;;;;;5029704;28;20508;-66
2022/08/24 11:50:02;;;;;;;8.70;5.83;;;25.20;99.90;;;;;;5074306;28;20404;-67
2022/08/24 11:52:43;;;;;;;7.73;6.13;;;25.30;99.90;;;;;;5072669;28;20864;-68
2022/08/24 11:55:28;;;;;;;5.90;5.30;;;25.50;99.90;;;;;;5073900;28;20426;-67
2022/08/24 11:59:04;;;;;;;6.07;5.37;;;25.40;99.90;;;;;;5074145;28;20402;-68
2022/08/24 12:01:44;;;;;;;5.43;4.90;;;25.50;99.90;;;;;;4990571;28;20567;-67
2022/08/24 12:04:28;;;;;;;7.07;6.47;;;25.90;99.90;;;;;;5012215;28;20413;-67
2022/08/24 12:07:06;;;;;;;7.70;5.90;;;25.90;99.90;;;;;;5054207;28;20768;-68
2022/08/24 12:09:49;;;;;;;7.30;5.03;;;25.70;99.90;;;;;;5073783;28;20882;-68
2022/08/24 12:12:28;;;;;;;6.10;5.50;;;25.50;99.90;;;;;;5073548;28;20469;-67
2022/08/24 12:15:01;;;;;;;5.67;5.17;;;25.40;99.90;;;;;;5073009;28;20413;-68
2022/08/24 12:17:39;;;;;;;5.90;5.30;;;25.70;99.90;;;;;;5073385;28;20398;-67
2022/08/24 12:20:26;;;;;;;8.43;6.40;;;25.70;99.90;;;;;;5072185;28;20403;-68
2022/08/24 12:22:54;;;;;;;7.83;5.00;;;26.10;99.90;;;;;;5073592;28;20781;-68
2022/08/24 12:28:06;;;;;;;6.27;5.20;;;26.60;99.90;;;;;;5073719;28;20490;-67
2022/08/24 12:30:32;;;;;;;5.73;5.23;;;26.30;99.90;;;;;;5073746;28;20412;-68
2022/08/24 12:33:05;;;;;;;5.77;5.17;;;26.40;99.90;;;;;;5073524;28;20457;-68
2022/08/24 12:35:39;;;;;;;6.83;5.07;;;26.50;99.90;;;;;;5073499;28;20430;-68
2022/08/24 12:38:08;;;;;;;6.73;4.90;;;26.70;99.90;;;;;;5073841;28;20400;-67
2022/08/24 12:40:40;;;;;;;6.00;5.10;;;26.90;99.90;;;;;;5073340;28;20903;-67
2022/08/24 12:43:11;;;;;;;6.20;5.60;;;26.90;99.90;;;;;;5073160;28;20500;-67
2022/08/24 12:45:37;;;;;;;9.90;5.57;;;27.00;99.90;;;;;;5072810;28;20434;-67
2022/08/24 12:48:36;;;;;;;6.10;5.50;;;26.80;99.90;;;;;;5073059;28;20541;-67
2022/08/24 12:51:32;;;;;;;5.70;5.20;;;26.70;99.90;;;;;;5069298;28;20426;-67
2022/08/24 12:54:23;;;;;;;6.80;5.23;;;26.30;99.90;;;;;;5073287;28;20419;-67
2022/08/24 12:57:25;;;;;;;9.50;5.00;;;26.00;99.90;;;;;;5072527;28;20419;-68
2022/08/24 13:00:02;;;;;;;20.23;14.07;;;25.70;99.90;;;;;;5073198;28;20456;-67
2022/08/24 13:02:36;;;;;;;12.20;9.30;;;25.90;99.90;;;;;;5073108;28;20406;-67
2022/08/24 13:05:14;;;;;;;5.40;4.87;;;26.30;99.90;;;;;;5072446;28;20933;-67
2022/08/24 13:07:45;;;;;;;7.33;6.60;;;26.70;99.90;;;;;;5072724;28;20401;-67
2022/08/24 13:10:23;;;;;;;11.60;8.90;;;26.80;99.90;;;;;;5073055;28;20918;-67
2022/08/24 13:13:04;;;;;;;5.10;4.70;;;26.80;99.90;;;;;;5072378;28;20528;-68
2022/08/24 13:15:29;;;;;;;16.80;12.17;;;27.10;99.90;;;;;;5071787;28;20435;-69
2022/08/24 13:18:07;;;;;;;7.07;5.23;;;27.10;99.90;;;;;;5071902;28;20408;-67
2022/08/24 13:20:54;;;;;;;8.53;6.27;;;27.30;99.90;;;;;;5072103;28;20299;-68